Time;durP1;ratioP1;P1;durP2;ratioP2;P2;SDS_P1;SDS_P2;PMS_P1;PMS_P2;Temp;Humidity;BMP_temperature;BMP_pressure;BME280_temperature;BME280_humidity;BME280_pressure;Samples;Min_cycle;Max_cycle;Signal;HPM_P1;HPM_P2
2022/11/08 00:01:32;;;;;;;5.57;2.80;;;;;;;;;;5048317;28;20021;-80
2022/11/08 00:03:59;;;;;;;6.53;3.47;;;;;;;;;;5048326;28;20387;-79
2022/11/08 00:14:35;;;;;;;8.38;3.20;;;;;;;;;;5050009;28;20025;-86
2022/11/08 00:17:00;;;;;;;9.00;3.40;;;;;;;;;;5051526;28;20067;-77
2022/11/08 00:19:25;;;;;;;6.53;3.00;;;;;;;;;;5030238;28;20278;-75
2022/11/08 00:21:51;;;;;;;5.17;3.00;;;;;;;;;;5032366;28;20271;-77
2022/11/08 00:24:16;;;;;;;7.83;3.03;;;;;;;;;;5033361;28;20279;-76
2022/11/08 00:26:41;;;;;;;7.43;3.65;;;;;;;;;;5021938;28;20339;-77
2022/11/08 00:29:06;;;;;;;6.87;4.17;;;;;;;;;;5028748;28;20384;-76
2022/11/08 00:31:32;;;;;;;18.35;4.45;;;;;;;;;;5029062;28;20630;-86
2022/11/08 00:33:57;;;;;;;9.45;3.92;;;;;;;;;;5027727;28;20117;-87
2022/11/08 00:36:22;;;;;;;7.10;3.00;;;;;;;;;;5030227;28;20376;-86
2022/11/08 00:38:47;;;;;;;7.05;3.53;;;;;;;;;;5026605;28;20056;-85
2022/11/08 00:41:13;;;;;;;7.40;3.53;;;;;;;;;;5031753;28;20432;-86
2022/11/08 00:43:38;;;;;;;7.97;3.65;;;;;;;;;;5022691;28;20048;-87
2022/11/08 00:46:03;;;;;;;9.27;4.75;;;;;;;;;;5018640;28;20416;-87
2022/11/08 00:48:29;;;;;;;7.63;3.67;;;;;;;;;;5017230;28;20025;-72
2022/11/08 00:50:54;;;;;;;6.32;3.50;;;;;;;;;;5030279;28;20029;-82
2022/11/08 00:53:19;;;;;;;9.82;3.72;;;;;;;;;;5030718;28;20164;-86
2022/11/08 00:55:44;;;;;;;9.65;3.40;;;;;;;;;;5031816;28;20017;-86
2022/11/08 00:58:10;;;;;;;6.65;3.33;;;;;;;;;;5025128;28;20025;-87
2022/11/08 01:00:35;;;;;;;8.77;3.75;;;;;;;;;;5031375;28;20016;-87
2022/11/08 01:03:18;;;;;;;7.82;3.80;;;;;;;;;;5030145;28;20454;-85
2022/11/08 01:05:44;;;;;;;11.82;4.72;;;;;;;;;;5013834;28;20021;-85
2022/11/08 01:08:10;;;;;;;7.18;3.13;;;;;;;;;;5029264;28;20048;-75
2022/11/08 01:10:35;;;;;;;5.95;3.53;;;;;;;;;;5027203;28;20013;-77
2022/11/08 01:13:01;;;;;;;8.35;3.67;;;;;;;;;;5028260;28;20028;-77
2022/11/08 01:15:26;;;;;;;6.93;3.55;;;;;;;;;;5027013;28;20108;-78
2022/11/08 01:17:51;;;;;;;7.35;3.28;;;;;;;;;;5028774;28;20029;-78
2022/11/08 01:20:16;;;;;;;7.20;3.58;;;;;;;;;;5027252;28;20463;-77
2022/11/08 01:22:42;;;;;;;6.55;3.72;;;;;;;;;;5030749;28;20021;-79
2022/11/08 01:25:07;;;;;;;8.55;4.15;;;;;;;;;;5028677;28;20049;-79
2022/11/08 01:27:32;;;;;;;12.70;3.58;;;;;;;;;;5028435;28;20018;-77
2022/11/08 01:29:58;;;;;;;8.48;3.67;;;;;;;;;;5030057;28;20025;-73
2022/11/08 01:32:23;;;;;;;6.72;3.50;;;;;;;;;;5027415;28;20045;-73
2022/11/08 01:34:48;;;;;;;6.55;3.63;;;;;;;;;;5028412;28;20480;-73
2022/11/08 01:37:14;;;;;;;4.72;3.15;;;;;;;;;;5024665;28;20029;-71
2022/11/08 01:39:39;;;;;;;6.05;3.75;;;;;;;;;;5024485;28;20074;-72
2022/11/08 01:42:04;;;;;;;6.72;3.78;;;;;;;;;;5027893;28;20021;-75
2022/11/08 01:44:30;;;;;;;6.57;3.65;;;;;;;;;;5022946;28;20508;-73
2022/11/08 01:46:55;;;;;;;12.18;4.10;;;;;;;;;;5026370;28;20025;-73
2022/11/08 01:49:20;;;;;;;8.50;3.90;;;;;;;;;;5021827;28;20056;-73
2022/11/08 01:51:45;;;;;;;10.07;3.80;;;;;;;;;;5028486;28;20272;-71
2022/11/08 01:54:12;;;;;;;6.77;3.47;;;;;;;;;;5028975;28;20799;-73
2022/11/08 01:56:38;;;;;;;7.03;3.60;;;;;;;;;;5027347;28;20112;-73
2022/11/08 01:59:04;;;;;;;10.80;4.22;;;;;;;;;;5024487;28;20053;-71
2022/11/08 02:01:30;;;;;;;6.60;3.42;;;;;;;;;;5021403;28;20022;-73
2022/11/08 02:03:56;;;;;;;9.83;3.47;;;;;;;;;;5013912;28;20029;-84
2022/11/08 02:06:21;;;;;;;7.53;3.42;;;;;;;;;;5028356;28;20264;-76
2022/11/08 02:08:47;;;;;;;6.65;3.30;;;;;;;;;;5027564;28;20160;-75
2022/11/08 02:11:13;;;;;;;7.50;3.40;;;;;;;;;;5027914;28;20013;-77
2022/11/08 02:13:39;;;;;;;9.02;4.00;;;;;;;;;;5028134;28;20111;-76
2022/11/08 02:16:12;;;;;;;6.40;3.80;;;;;;;;;;5019881;28;20599;-76
2022/11/08 02:18:37;;;;;;;6.68;3.17;;;;;;;;;;5021697;28;20108;-77
2022/11/08 02:21:08;;;;;;;8.00;3.70;;;;;;;;;;5029715;28;20580;-76
2022/11/08 02:23:39;;;;;;;8.27;3.80;;;;;;;;;;5029253;28;20052;-76
2022/11/08 02:26:04;;;;;;;7.93;3.30;;;;;;;;;;5028327;28;20072;-75
2022/11/08 02:28:36;;;;;;;7.70;3.80;;;;;;;;;;5027163;28;20473;-78
2022/11/08 02:31:01;;;;;;;8.07;3.78;;;;;;;;;;5028257;28;20029;-76
2022/11/08 02:33:26;;;;;;;7.90;3.40;;;;;;;;;;5027842;28;20147;-74
2022/11/08 02:35:53;;;;;;;8.37;3.43;;;;;;;;;;5023489;28;20029;-74
2022/11/08 02:38:18;;;;;;;7.45;3.45;;;;;;;;;;5024114;28;20793;-74
2022/11/08 02:40:53;;;;;;;6.82;3.97;;;;;;;;;;5029903;28;20051;-74
2022/11/08 02:43:19;;;;;;;5.00;3.30;;;;;;;;;;5027013;28;20065;-76
2022/11/08 02:45:44;;;;;;;6.40;3.22;;;;;;;;;;5022624;28;20102;-78
2022/11/08 02:48:10;;;;;;;7.90;3.53;;;;;;;;;;5031891;28;20395;-78
2022/11/08 02:50:35;;;;;;;7.63;3.33;;;;;;;;;;5032343;28;20020;-77
2022/11/08 02:53:01;;;;;;;5.97;3.13;;;;;;;;;;5028145;28;20029;-78
2022/11/08 02:55:27;;;;;;;8.20;3.55;;;;;;;;;;5033658;28;20089;-78
2022/11/08 02:57:52;;;;;;;6.00;3.45;;;;;;;;;;5025475;28;20021;-78
2022/11/08 03:00:17;;;;;;;5.85;3.15;;;;;;;;;;5029175;28;20059;-77
2022/11/08 03:02:42;;;;;;;6.82;3.20;;;;;;;;;;5025960;28;20564;-77
2022/11/08 03:05:08;;;;;;;5.07;3.37;;;;;;;;;;5032234;28;20025;-76
2022/11/08 03:07:33;;;;;;;6.80;3.20;;;;;;;;;;5026252;28;20264;-78
2022/11/08 03:09:58;;;;;;;10.77;3.87;;;;;;;;;;5032370;28;20366;-78
2022/11/08 03:12:23;;;;;;;6.65;3.05;;;;;;;;;;5028846;28;20271;-78
2022/11/08 03:14:49;;;;;;;6.60;3.43;;;;;;;;;;5029213;28;20116;-76
2022/11/08 03:17:14;;;;;;;7.28;3.63;;;;;;;;;;5025758;28;20308;-73
2022/11/08 03:19:39;;;;;;;5.70;3.75;;;;;;;;;;5024582;28;20531;-85
2022/11/08 03:22:04;;;;;;;6.07;3.03;;;;;;;;;;5029663;28;20028;-84
2022/11/08 03:24:29;;;;;;;8.17;3.20;;;;;;;;;;5026071;28;20288;-85
2022/11/08 03:26:55;;;;;;;4.63;2.80;;;;;;;;;;5028451;28;20288;-84
2022/11/08 03:29:20;;;;;;;6.37;3.00;;;;;;;;;;5030019;28;20276;-83
2022/11/08 03:31:45;;;;;;;8.10;2.83;;;;;;;;;;5026068;28;21042;-83
2022/11/08 03:34:10;;;;;;;9.97;2.73;;;;;;;;;;5026943;28;20623;-77
2022/11/08 03:36:36;;;;;;;5.70;3.17;;;;;;;;;;5029285;28;20759;-78
2022/11/08 03:39:01;;;;;;;7.03;3.13;;;;;;;;;;5025821;28;20790;-72
2022/11/08 03:41:26;;;;;;;4.28;2.63;;;;;;;;;;5029563;28;20025;-72
2022/11/08 03:43:51;;;;;;;5.68;3.50;;;;;;;;;;5026899;28;20036;-72
2022/11/08 03:46:17;;;;;;;6.47;2.58;;;;;;;;;;5027174;28;20029;-75
2022/11/08 03:48:42;;;;;;;7.60;3.08;;;;;;;;;;5029174;28;20492;-74
2022/11/08 03:51:07;;;;;;;5.65;2.67;;;;;;;;;;5028034;28;20405;-72
2022/11/08 03:53:33;;;;;;;8.48;3.15;;;;;;;;;;5014819;28;20028;-86
2022/11/08 03:55:58;;;;;;;4.35;2.40;;;;;;;;;;5030657;28;20649;-77
2022/11/08 03:58:24;;;;;;;6.07;2.67;;;;;;;;;;5029149;28;20233;-77
2022/11/08 04:00:49;;;;;;;9.60;2.87;;;;;;;;;;5020182;28;20629;-77
2022/11/08 04:03:14;;;;;;;4.57;2.17;;;;;;;;;;5031339;28;20303;-77
2022/11/08 04:05:39;;;;;;;7.72;2.63;;;;;;;;;;5030211;28;20463;-76
2022/11/08 04:08:05;;;;;;;4.90;3.00;;;;;;;;;;5030909;28;20021;-77
2022/11/08 04:10:30;;;;;;;8.00;3.50;;;;;;;;;;5028825;28;20022;-78
2022/11/08 04:15:41;;;;;;;6.47;3.13;;;;;;;;;;5029574;28;20516;-79
2022/11/08 04:23:35;;;;;;;5.68;2.72;;;;;;;;;;5024479;28;20061;-76
2022/11/08 04:26:02;;;;;;;5.35;2.47;;;;;;;;;;5042845;28;20122;-78
2022/11/08 04:28:29;;;;;;;7.15;3.20;;;;;;;;;;5033665;28;20241;-76
2022/11/08 04:30:56;;;;;;;5.50;2.30;;;;;;;;;;5046613;28;20021;-77
2022/11/08 04:33:21;;;;;;;5.85;2.55;;;;;;;;;;5051241;28;20104;-77
2022/11/08 04:35:47;;;;;;;6.35;2.88;;;;;;;;;;5033627;28;20139;-74
2022/11/08 04:38:12;;;;;;;6.82;2.47;;;;;;;;;;5033121;28;20502;-75
2022/11/08 04:40:37;;;;;;;4.87;2.60;;;;;;;;;;5033244;28;20502;-75
2022/11/08 04:43:03;;;;;;;5.90;3.17;;;;;;;;;;5033132;28;20806;-75
2022/11/08 04:45:28;;;;;;;7.30;3.20;;;;;;;;;;5023551;28;20314;-76
2022/11/08 04:47:53;;;;;;;6.17;2.87;;;;;;;;;;5030679;28;20020;-73
2022/11/08 04:50:18;;;;;;;5.23;2.87;;;;;;;;;;5047811;28;20299;-76
2022/11/08 04:52:49;;;;;;;6.23;3.10;;;;;;;;;;5030086;28;20286;-78
2022/11/08 04:55:14;;;;;;;4.88;3.10;;;;;;;;;;5030006;28;20279;-79
2022/11/08 04:57:39;;;;;;;4.33;2.67;;;;;;;;;;5047362;28;20063;-79
2022/11/08 05:00:05;;;;;;;4.80;2.53;;;;;;;;;;5027794;28;20274;-79
2022/11/08 05:02:30;;;;;;;9.18;3.35;;;;;;;;;;5045644;28;20272;-79
2022/11/08 05:04:56;;;;;;;6.43;3.30;;;;;;;;;;5047409;28;20412;-80
2022/11/08 05:07:21;;;;;;;6.00;2.72;;;;;;;;;;5029366;28;20861;-80
2022/11/08 05:09:48;;;;;;;6.28;3.10;;;;;;;;;;5028912;28;20052;-79
2022/11/08 05:12:13;;;;;;;3.72;2.28;;;;;;;;;;5048004;28;20025;-77
2022/11/08 05:14:39;;;;;;;9.27;3.00;;;;;;;;;;5043229;28;20029;-77
2022/11/08 05:17:04;;;;;;;9.27;3.37;;;;;;;;;;5047558;28;20275;-78
2022/11/08 05:24:57;;;;;;;5.57;2.92;;;;;;;;;;5046614;28;20722;-73
2022/11/08 05:27:22;;;;;;;6.55;2.45;;;;;;;;;;5031278;28;20051;-77
2022/11/08 05:29:47;;;;;;;8.80;3.08;;;;;;;;;;5029668;28;20397;-76
2022/11/08 05:32:12;;;;;;;5.60;2.53;;;;;;;;;;5028588;28;20025;-76
2022/11/08 05:34:37;;;;;;;5.85;2.53;;;;;;;;;;5031586;28;20272;-76
2022/11/08 05:37:03;;;;;;;7.03;3.00;;;;;;;;;;5031198;28;20024;-75
2022/11/08 05:39:28;;;;;;;6.07;2.97;;;;;;;;;;5044946;28;20286;-76
2022/11/08 05:41:53;;;;;;;5.40;2.67;;;;;;;;;;5030983;28;20021;-75
2022/11/08 05:44:18;;;;;;;7.23;2.23;;;;;;;;;;5027019;28;20701;-77
2022/11/08 05:46:44;;;;;;;5.00;2.93;;;;;;;;;;5031305;28;20272;-76
2022/11/08 05:49:09;;;;;;;7.57;2.97;;;;;;;;;;5044210;28;20264;-75
2022/11/08 05:51:34;;;;;;;7.73;2.97;;;;;;;;;;5026080;28;20268;-77
2022/11/08 05:53:59;;;;;;;7.93;3.15;;;;;;;;;;5029707;28;20334;-77
2022/11/08 05:56:25;;;;;;;4.63;3.22;;;;;;;;;;5030824;28;20028;-77
2022/11/08 05:58:50;;;;;;;4.47;2.73;;;;;;;;;;5025345;28;20507;-77
2022/11/08 06:01:16;;;;;;;7.00;3.33;;;;;;;;;;5027102;28;20836;-77
2022/11/08 06:03:42;;;;;;;5.57;2.92;;;;;;;;;;5030877;28;20115;-83
2022/11/08 06:06:11;;;;;;;6.07;2.85;;;;;;;;;;5046540;28;20109;-73
2022/11/08 06:08:37;;;;;;;7.78;3.08;;;;;;;;;;5022128;28;20128;-72
2022/11/08 06:11:02;;;;;;;7.43;3.25;;;;;;;;;;5026759;28;20120;-74
2022/11/08 06:13:28;;;;;;;4.97;2.40;;;;;;;;;;5031752;28;20338;-73
2022/11/08 06:15:53;;;;;;;5.07;2.43;;;;;;;;;;5031076;28;20027;-74
2022/11/08 06:18:18;;;;;;;5.40;3.05;;;;;;;;;;5030699;28;20276;-73
2022/11/08 06:20:43;;;;;;;4.87;2.60;;;;;;;;;;5019763;28;20086;-83
2022/11/08 06:23:08;;;;;;;6.20;3.20;;;;;;;;;;5031196;28;20323;-82
2022/11/08 06:25:34;;;;;;;4.60;2.27;;;;;;;;;;5030882;28;20460;-82
2022/11/08 06:27:59;;;;;;;6.23;3.37;;;;;;;;;;5030196;28;20822;-83
2022/11/08 06:30:24;;;;;;;5.68;2.65;;;;;;;;;;5031302;28;20777;-83
2022/11/08 06:32:50;;;;;;;6.67;3.20;;;;;;;;;;5048984;28;20096;-81
2022/11/08 06:35:15;;;;;;;4.90;2.37;;;;;;;;;;5050218;28;20342;-82
2022/11/08 06:37:40;;;;;;;6.72;3.10;;;;;;;;;;5048971;28;20893;-83
2022/11/08 06:40:06;;;;;;;6.28;2.55;;;;;;;;;;5030480;28;20025;-78
2022/11/08 06:42:31;;;;;;;6.53;3.00;;;;;;;;;;5048796;28;20516;-79
2022/11/08 06:44:56;;;;;;;4.82;2.85;;;;;;;;;;5021600;28;20098;-76
2022/11/08 06:47:21;;;;;;;10.07;3.55;;;;;;;;;;5030771;28;20017;-77
2022/11/08 06:49:47;;;;;;;7.95;3.38;;;;;;;;;;5030909;28;20123;-77
2022/11/08 06:52:12;;;;;;;8.43;3.50;;;;;;;;;;5048634;28;20460;-77
2022/11/08 06:54:37;;;;;;;8.77;3.40;;;;;;;;;;5030550;28;20017;-77
2022/11/08 06:57:02;;;;;;;5.67;3.00;;;;;;;;;;5030199;28;20013;-73
2022/11/08 06:59:28;;;;;;;8.33;3.90;;;;;;;;;;5027429;28;20284;-80
2022/11/08 07:01:54;;;;;;;8.65;3.15;;;;;;;;;;5030753;28;20260;-79
2022/11/08 07:04:19;;;;;;;6.43;3.30;;;;;;;;;;5049191;28;20061;-79
2022/11/08 07:06:44;;;;;;;11.48;3.55;;;;;;;;;;5049633;28;20043;-79
2022/11/08 07:09:10;;;;;;;7.43;3.40;;;;;;;;;;5048371;28;20035;-78
2022/11/08 07:11:35;;;;;;;10.63;3.70;;;;;;;;;;5049678;28;20021;-79
2022/11/08 07:14:00;;;;;;;6.93;3.10;;;;;;;;;;5049150;28;20282;-78
2022/11/08 07:16:26;;;;;;;7.40;3.80;;;;;;;;;;5048711;28;20785;-76
2022/11/08 07:18:51;;;;;;;6.85;3.28;;;;;;;;;;5029642;28;20032;-74
2022/11/08 07:21:16;;;;;;;5.03;3.13;;;;;;;;;;5049346;28;20016;-73
2022/11/08 07:23:41;;;;;;;8.23;4.00;;;;;;;;;;5029678;28;20303;-74
2022/11/08 07:26:09;;;;;;;10.32;5.20;;;;;;;;;;5048525;28;20103;-74
2022/11/08 07:28:34;;;;;;;10.27;4.03;;;;;;;;;;5029747;28;20045;-74
2022/11/08 07:31:02;;;;;;;8.10;4.35;;;;;;;;;;5030597;28;20526;-75
2022/11/08 07:33:27;;;;;;;7.45;3.78;;;;;;;;;;5046473;28;20411;-83
2022/11/08 07:35:53;;;;;;;7.28;3.65;;;;;;;;;;5034684;28;20013;-78
2022/11/08 07:38:19;;;;;;;9.13;4.13;;;;;;;;;;5046127;28;20078;-72
2022/11/08 07:40:44;;;;;;;9.70;4.28;;;;;;;;;;5033910;28;20029;-73
2022/11/08 07:43:11;;;;;;;8.20;4.35;;;;;;;;;;5033216;28;20035;-71
2022/11/08 07:45:37;;;;;;;8.88;4.25;;;;;;;;;;5032503;28;20454;-73
2022/11/08 07:48:03;;;;;;;9.35;4.20;;;;;;;;;;5048688;28;20116;-74
2022/11/08 07:50:29;;;;;;;6.63;3.72;;;;;;;;;;5025570;28;20044;-72
2022/11/08 07:52:54;;;;;;;9.13;4.00;;;;;;;;;;5024891;28;20052;-82
2022/11/08 07:55:19;;;;;;;10.07;3.95;;;;;;;;;;5033658;28;20272;-76
2022/11/08 07:57:45;;;;;;;8.05;4.05;;;;;;;;;;5033289;28;20475;-77
2022/11/08 08:00:11;;;;;;;10.77;3.83;;;;;;;;;;5033502;28;20032;-77
2022/11/08 08:02:36;;;;;;;7.07;3.35;;;;;;;;;;5052326;28;20009;-76
2022/11/08 08:05:01;;;;;;;6.80;3.33;;;;;;;;;;5033417;28;20115;-77
2022/11/08 08:07:26;;;;;;;8.20;4.05;;;;;;;;;;5050940;28;20271;-77
2022/11/08 08:09:52;;;;;;;6.70;3.43;;;;;;;;;;5033775;28;20116;-77
2022/11/08 08:12:17;;;;;;;10.50;3.60;;;;;;;;;;5030425;28;20286;-83
2022/11/08 08:14:42;;;;;;;5.97;3.22;;;;;;;;;;5052230;28;20260;-85
2022/11/08 08:17:07;;;;;;;6.77;3.63;;;;;;;;;;5050832;28;20025;-85
2022/11/08 08:19:32;;;;;;;7.40;3.33;;;;;;;;;;5052255;28;20275;-85
2022/11/08 08:21:58;;;;;;;6.53;3.23;;;;;;;;;;5032303;28;20266;-84
2022/11/08 08:24:23;;;;;;;6.17;3.43;;;;;;;;;;5051965;28;20298;-84
2022/11/08 08:26:48;;;;;;;7.05;3.80;;;;;;;;;;5050432;28;20275;-86
2022/11/08 08:29:13;;;;;;;7.73;3.60;;;;;;;;;;5020055;28;20057;-73
2022/11/08 08:31:38;;;;;;;8.27;3.40;;;;;;;;;;5032643;28;20295;-75
2022/11/08 08:34:04;;;;;;;7.47;3.33;;;;;;;;;;5051668;28;20634;-76
2022/11/08 08:36:29;;;;;;;7.40;3.27;;;;;;;;;;5033039;28;20799;-76
2022/11/08 08:38:54;;;;;;;9.80;3.25;;;;;;;;;;5050784;28;20280;-77
2022/11/08 08:41:19;;;;;;;8.30;2.78;;;;;;;;;;5032365;28;20155;-77
2022/11/08 08:43:45;;;;;;;7.47;2.73;;;;;;;;;;5049643;28;20039;-77
2022/11/08 08:46:10;;;;;;;7.00;2.50;;;;;;;;;;5025397;28;20256;-77
2022/11/08 08:48:37;;;;;;;8.75;2.55;;;;;;;;;;5047643;28;20272;-87
2022/11/08 08:51:02;;;;;;;5.68;2.80;;;;;;;;;;5050861;28;20029;-79
2022/11/08 08:53:27;;;;;;;5.30;3.55;;;;;;;;;;5030835;28;20119;-79
2022/11/08 08:55:53;;;;;;;6.40;2.40;;;;;;;;;;5049646;28;20064;-78
2022/11/08 08:58:18;;;;;;;5.55;2.58;;;;;;;;;;5031599;28;20275;-78
2022/11/08 09:00:44;;;;;;;7.65;2.75;;;;;;;;;;5048809;28;20016;-79
2022/11/08 09:03:09;;;;;;;6.30;2.37;;;;;;;;;;5049649;28;20029;-78
2022/11/08 09:05:35;;;;;;;3.58;2.15;;;;;;;;;;5038239;28;20287;-76
2022/11/08 09:08:02;;;;;;;6.18;2.50;;;;;;;;;;5024295;28;20063;-78
2022/11/08 09:10:28;;;;;;;3.40;2.10;;;;;;;;;;5014722;28;20049;-80
2022/11/08 09:12:53;;;;;;;9.45;2.85;;;;;;;;;;5032080;28;20476;-78
2022/11/08 09:15:18;;;;;;;7.15;3.08;;;;;;;;;;5030276;28;20020;-80
2022/11/08 09:17:44;;;;;;;4.93;2.50;;;;;;;;;;5033702;28;20056;-78
2022/11/08 09:20:09;;;;;;;5.03;2.63;;;;;;;;;;5051439;28;20416;-79
2022/11/08 09:22:35;;;;;;;5.20;2.35;;;;;;;;;;5031964;28;20025;-79
2022/11/08 09:25:00;;;;;;;4.30;2.25;;;;;;;;;;5050446;28;20132;-76
2022/11/08 09:27:26;;;;;;;7.45;2.25;;;;;;;;;;5032580;28;20012;-73
2022/11/08 09:29:51;;;;;;;2.97;2.00;;;;;;;;;;5031937;28;20495;-72
2022/11/08 09:32:17;;;;;;;8.77;2.20;;;;;;;;;;5021430;28;20057;-75
2022/11/08 09:34:43;;;;;;;6.40;2.05;;;;;;;;;;5048630;28;20311;-71
2022/11/08 09:37:08;;;;;;;4.70;1.90;;;;;;;;;;5027138;28;20104;-71
2022/11/08 09:39:33;;;;;;;12.10;3.57;;;;;;;;;;5025932;28;20112;-70
2022/11/08 09:42:14;;;;;;;10.77;2.83;;;;;;;;;;5029002;28;20299;-83
2022/11/08 09:44:53;;;;;;;7.75;2.13;;;;;;;;;;5031837;28;20043;-76
2022/11/08 09:47:18;;;;;;;5.38;2.25;;;;;;;;;;5020372;28;20025;-76
2022/11/08 09:49:45;;;;;;;9.93;3.40;;;;;;;;;;5031489;28;20479;-76
2022/11/08 09:52:15;;;;;;;4.47;2.00;;;;;;;;;;5031158;28;20024;-76
2022/11/08 09:54:41;;;;;;;4.63;2.60;;;;;;;;;;5030619;28;20025;-76
2022/11/08 09:57:14;;;;;;;4.28;2.28;;;;;;;;;;5031958;28;20017;-75
2022/11/08 09:59:46;;;;;;;6.78;2.13;;;;;;;;;;5049490;28;20597;-75
2022/11/08 10:02:15;;;;;;;3.90;1.60;;;;;;;;;;5048719;28;20094;-76
2022/11/08 10:04:40;;;;;;;2.60;1.30;;;;;;;;;;5047369;28;20423;-82
2022/11/08 10:07:16;;;;;;;3.70;1.17;;;;;;;;;;5031061;28;20036;-81
2022/11/08 10:10:00;;;;;;;4.70;1.50;;;;;;;;;;5038754;28;20523;-81
2022/11/08 10:12:44;;;;;;;2.58;1.40;;;;;;;;;;5046550;28;20027;-79
2022/11/08 10:15:12;;;;;;;3.45;1.50;;;;;;;;;;5048433;28;20048;-81
2022/11/08 10:18:04;;;;;;;2.78;1.50;;;;;;;;;;5048811;28;20103;-81
2022/11/08 10:20:34;;;;;;;5.07;1.60;;;;;;;;;;5009820;28;20032;-82
2022/11/08 10:23:11;;;;;;;5.22;1.50;;;;;;;;;;5049649;28;20052;-76
2022/11/08 10:26:03;;;;;;;2.00;1.20;;;;;;;;;;5031018;28;20388;-73
2022/11/08 10:28:32;;;;;;;3.92;1.98;;;;;;;;;;5018458;28;20112;-77
2022/11/08 10:30:57;;;;;;;;;;;;;;;;;;5048741;28;20025;-76
2022/11/08 10:33:28;;;;;;;3.17;1.50;;;;;;;;;;5044856;28;20279;-76
2022/11/08 10:36:02;;;;;;;12.52;2.08;;;;;;;;;;5045947;28;20088;-77
2022/11/08 10:38:32;;;;;;;4.30;2.30;;;;;;;;;;5038784;28;20013;-75
2022/11/08 10:41:02;;;;;;;4.45;2.00;;;;;;;;;;5030458;28;20091;-73
2022/11/08 10:43:27;;;;;;;;;;;;;;;;;;5031562;28;20108;-71
2022/11/08 10:45:52;;;;;;;4.07;1.50;;;;;;;;;;5021129;28;20019;-73
2022/11/08 10:48:17;;;;;;;3.05;1.70;;;;;;;;;;5027256;28;20048;-71
2022/11/08 10:50:49;;;;;;;5.57;1.90;;;;;;;;;;5031013;28;20484;-73
2022/11/08 10:53:17;;;;;;;2.85;1.70;;;;;;;;;;5029366;28;20268;-72
2022/11/08 10:55:47;;;;;;;3.90;1.85;;;;;;;;;;5029776;28;20029;-77
2022/11/08 10:58:12;;;;;;;;;;;;;;;;;;5049780;28;20025;-78
2022/11/08 11:00:37;;;;;;;3.80;1.70;;;;;;;;;;5030881;28;19919;-77
2022/11/08 11:03:08;;;;;;;5.63;2.10;;;;;;;;;;5030797;28;20354;-77
2022/11/08 11:05:40;;;;;;;7.53;2.40;;;;;;;;;;5032505;28;20107;-77
2022/11/08 11:08:08;;;;;;;2.65;1.95;;;;;;;;;;5034700;28;20020;-77
2022/11/08 11:10:41;;;;;;;6.90;2.20;;;;;;;;;;5035195;28;20024;-77
2022/11/08 11:13:20;;;;;;;4.20;1.92;;;;;;;;;;5034780;28;20056;-76
2022/11/08 11:15:54;;;;;;;6.37;2.00;;;;;;;;;;5034274;28;20043;-75
2022/11/08 11:18:22;;;;;;;3.97;1.55;;;;;;;;;;5052558;28;20039;-75
2022/11/08 11:20:57;;;;;;;4.22;2.30;;;;;;;;;;5034114;28;20100;-75
2022/11/08 11:23:22;;;;;;;4.60;1.55;;;;;;;;;;5034431;28;20377;-75
2022/11/08 11:25:51;;;;;;;5.95;1.77;;;;;;;;;;5051751;28;20103;-74
2022/11/08 11:28:16;;;;;;;3.35;1.60;;;;;;;;;;5034292;28;20032;-75
2022/11/08 11:30:46;;;;;;;1.48;1.27;;;;;;;;;;5052972;28;20395;-75
2022/11/08 11:33:22;;;;;;;3.50;1.80;;;;;;;;;;5029520;28;20139;-72
2022/11/08 11:35:53;;;;;;;4.40;1.65;;;;;;;;;;5052044;28;20036;-76
2022/11/08 11:38:23;;;;;;;3.15;1.75;;;;;;;;;;5024344;28;20028;-74
2022/11/08 11:40:48;;;;;;;;;;;;;;;;;;5035232;28;20141;-75
2022/11/08 11:43:19;;;;;;;4.47;2.08;;;;;;;;;;5033643;28;20003;-75
2022/11/08 11:45:56;;;;;;;4.13;1.95;;;;;;;;;;5050263;28;20025;-75
2022/11/08 11:48:27;;;;;;;6.07;1.95;;;;;;;;;;5034002;28;20016;-75
2022/11/08 11:50:52;;;;;;;4.00;1.80;;;;;;;;;;5033864;28;20025;-72
2022/11/08 11:53:20;;;;;;;6.20;1.67;;;;;;;;;;5034304;28;20119;-86
2022/11/08 11:56:00;;;;;;;4.05;2.08;;;;;;;;;;5033686;28;20025;-76
2022/11/08 11:58:44;;;;;;;3.15;1.73;;;;;;;;;;5047421;28;20021;-78
2022/11/08 12:01:09;;;;;;;5.07;1.95;;;;;;;;;;5023795;28;20021;-75
2022/11/08 12:04:01;;;;;;;4.22;2.20;;;;;;;;;;5052093;28;20031;-76
2022/11/08 12:06:32;;;;;;;2.95;1.92;;;;;;;;;;5047049;28;20546;-75
2022/11/08 12:09:00;;;;;;;3.65;2.35;;;;;;;;;;5051939;28;20017;-76
2022/11/08 12:11:44;;;;;;;8.38;1.95;;;;;;;;;;5033780;28;20066;-71
2022/11/08 12:14:19;;;;;;;3.38;1.80;;;;;;;;;;5033741;28;20025;-76
2022/11/08 12:16:51;;;;;;;9.05;1.42;;;;;;;;;;5043078;28;20447;-77
2022/11/08 12:19:16;;;;;;;2.80;1.45;;;;;;;;;;5050849;28;20041;-75
2022/11/08 12:21:50;;;;;;;3.23;1.60;;;;;;;;;;5033685;28;20064;-75
2022/11/08 12:24:27;;;;;;;1.90;1.48;;;;;;;;;;5032765;28;20074;-76
2022/11/08 12:27:02;;;;;;;3.15;1.30;;;;;;;;;;5032926;28;20109;-76
2022/11/08 12:29:30;;;;;;;2.70;1.48;;;;;;;;;;5051819;28;20045;-80
2022/11/08 12:32:03;;;;;;;2.55;1.38;;;;;;;;;;5049135;28;20032;-81
2022/11/08 12:34:31;;;;;;;1.73;1.13;;;;;;;;;;5047850;28;20029;-81
2022/11/08 12:37:21;;;;;;;2.10;1.40;;;;;;;;;;5043384;28;20469;-80
2022/11/08 12:40:09;;;;;;;4.40;1.35;;;;;;;;;;5046298;28;20035;-80
2022/11/08 12:42:56;;;;;;;4.40;1.90;;;;;;;;;;5048792;28;20421;-81
2022/11/08 12:45:40;;;;;;;2.28;1.40;;;;;;;;;;5039902;28;20370;-82
2022/11/08 12:48:17;;;;;;;3.20;1.52;;;;;;;;;;5045605;28;20029;-76
2022/11/08 12:50:49;;;;;;;1.80;1.35;;;;;;;;;;5049578;28;20097;-80
2022/11/08 12:53:24;;;;;;;5.20;1.60;;;;;;;;;;5028710;28;20037;-81
2022/11/08 12:55:50;;;;;;;3.15;1.63;;;;;;;;;;5050078;28;20021;-80
2022/11/08 12:58:21;;;;;;;1.60;1.20;;;;;;;;;;5050979;28;20465;-80
2022/11/08 13:00:51;;;;;;;2.95;1.50;;;;;;;;;;5037189;28;20025;-80
2022/11/08 13:03:22;;;;;;;2.65;1.33;;;;;;;;;;5048818;28;20021;-81
2022/11/08 13:05:55;;;;;;;3.88;1.50;;;;;;;;;;5032164;28;20103;-75
2022/11/08 13:08:29;;;;;;;3.75;1.48;;;;;;;;;;5050824;28;20032;-91
2022/11/08 13:10:57;;;;;;;3.00;1.30;;;;;;;;;;5052130;28;20063;-89
2022/11/08 13:13:22;;;;;;;3.70;1.20;;;;;;;;;;5035046;28;20376;-88
2022/11/08 13:16:06;;;;;;;6.47;2.00;;;;;;;;;;5031915;28;20024;-87
2022/11/08 13:18:35;;;;;;;4.90;1.33;;;;;;;;;;5038729;28;20632;-89
2022/11/08 13:21:20;;;;;;;5.28;1.63;;;;;;;;;;5046931;28;20021;-89
2022/11/08 13:23:45;;;;;;;4.57;1.63;;;;;;;;;;5028516;28;20047;-75
2022/11/08 13:26:18;;;;;;;2.27;1.40;;;;;;;;;;5048637;28;20689;-88
2022/11/08 13:28:44;;;;;;;4.32;1.55;;;;;;;;;;5054004;28;20678;-86
2022/11/08 13:31:16;;;;;;;3.10;1.50;;;;;;;;;;5041568;28;20040;-87
2022/11/08 13:33:54;;;;;;;2.20;1.42;;;;;;;;;;5049080;28;20067;-89
2022/11/08 13:36:38;;;;;;;3.97;1.60;;;;;;;;;;5050361;28;20025;-87
2022/11/08 13:39:18;;;;;;;4.90;1.50;;;;;;;;;;5026561;28;20071;-86
2022/11/08 13:41:59;;;;;;;2.17;1.33;;;;;;;;;;5033433;28;20501;-73
2022/11/08 13:44:43;;;;;;;2.95;1.60;;;;;;;;;;5042177;28;20030;-89
2022/11/08 13:47:28;;;;;;;4.65;1.60;;;;;;;;;;5020108;28;20063;-86
2022/11/08 13:50:14;;;;;;;6.50;2.22;;;;;;;;;;5026665;28;20373;-86
2022/11/08 13:52:44;;;;;;;5.47;1.73;;;;;;;;;;5049864;28;20077;-86
2022/11/08 13:55:29;;;;;;;2.97;1.42;;;;;;;;;;5051742;28;20059;-88
2022/11/08 13:57:59;;;;;;;3.67;1.73;;;;;;;;;;5034780;28;20017;-88
2022/11/08 14:00:40;;;;;;;3.25;1.52;;;;;;;;;;5037109;28;20029;-88
2022/11/08 14:03:25;;;;;;;4.35;1.80;;;;;;;;;;5030797;28;20020;-87
2022/11/08 14:05:53;;;;;;;4.28;1.23;;;;;;;;;;5032407;28;20241;-88
2022/11/08 14:08:20;;;;;;;4.63;1.77;;;;;;;;;;5050400;28;20245;-85
2022/11/08 14:11:04;;;;;;;5.10;1.73;;;;;;;;;;5027819;28;20025;-87
2022/11/08 14:13:34;;;;;;;3.65;1.50;;;;;;;;;;5025003;28;20017;-86
2022/11/08 14:16:02;;;;;;;2.58;1.67;;;;;;;;;;5049665;28;20056;-87
2022/11/08 14:18:27;;;;;;;2.58;1.48;;;;;;;;;;5029536;28;20079;-73
2022/11/08 14:20:53;;;;;;;3.88;1.80;;;;;;;;;;5027554;28;20029;-78
2022/11/08 14:23:23;;;;;;;6.45;1.63;;;;;;;;;;5001592;28;20033;-85
2022/11/08 14:25:56;;;;;;;10.70;2.28;;;;;;;;;;5028384;28;20106;-86
2022/11/08 14:28:23;;;;;;;5.05;1.52;;;;;;;;;;5022242;28;20029;-88
2022/11/08 14:30:48;;;;;;;6.03;1.92;;;;;;;;;;5042480;28;20029;-86
2022/11/08 14:33:15;;;;;;;5.78;2.45;;;;;;;;;;5048128;28;20471;-85
2022/11/08 14:35:41;;;;;;;6.22;2.13;;;;;;;;;;5051131;28;20064;-87
2022/11/08 14:38:15;;;;;;;5.03;2.53;;;;;;;;;;5031777;28;20024;-77
2022/11/08 14:40:46;;;;;;;5.65;2.50;;;;;;;;;;5031196;28;20017;-77
2022/11/08 14:43:12;;;;;;;7.65;2.50;;;;;;;;;;5022464;28;20029;-78
2022/11/08 14:45:39;;;;;;;5.90;2.35;;;;;;;;;;5039162;28;20648;-77
2022/11/08 14:48:05;;;;;;;8.88;3.20;;;;;;;;;;5048210;28;20048;-80
2022/11/08 14:50:31;;;;;;;5.95;2.40;;;;;;;;;;5048314;28;20535;-78
2022/11/08 14:53:16;;;;;;;5.70;2.13;;;;;;;;;;5048875;28;20021;-77
2022/11/08 14:55:41;;;;;;;4.97;2.53;;;;;;;;;;5017554;28;20047;-86
2022/11/08 14:58:12;;;;;;;4.50;2.38;;;;;;;;;;5049792;28;20017;-77
2022/11/08 15:00:39;;;;;;;4.07;2.05;;;;;;;;;;5048968;28;20106;-77
2022/11/08 15:03:05;;;;;;;7.28;2.25;;;;;;;;;;5047246;28;20020;-77
2022/11/08 15:05:41;;;;;;;7.72;2.20;;;;;;;;;;5030905;28;20198;-77
2022/11/08 15:08:21;;;;;;;4.25;1.88;;;;;;;;;;5030394;28;20510;-77
2022/11/08 15:10:57;;;;;;;4.35;2.10;;;;;;;;;;5049110;28;20021;-77